EWG25 EDDL-LICJ
Flight info
| Callsign | EWG25 |
|---|---|
| Flight time | N/A |
| Altitude | 37000 |
| Route | DODEN7Z DODEN Y852 EDISA DCT TITIX N850 ODINA DCT GIANO |
| Aircraft | A320/M-SDE3FGHIRWY/LB1 |
Departure
| Time | N/A |
|---|---|
| Airport | Düsseldorf Airport (EDDL) |
Arrival
| Time | 2026-05-07 16:54 |
|---|---|
| Airport | Falcone–Borsellino Airport (LICJ) |
| Time | Latitude | Longitude | Altitude | Speed | Heading |
|---|---|---|---|---|---|
| 2026-05-07 16:50 | 38.23688 | 13.27381 | 2662 ft | 201 kts | 246° |
| 2026-05-07 16:51 | 38.23140 | 13.25725 | 2378 ft | 204 kts | 246° |
| 2026-05-07 16:51 | 38.22588 | 13.24076 | 2118 ft | 198 kts | 246° |
| 2026-05-07 16:51 | 38.22071 | 13.22535 | 1845 ft | 186 kts | 246° |
| 2026-05-07 16:51 | 38.21592 | 13.21104 | 1623 ft | 166 kts | 247° |
| 2026-05-07 16:52 | 38.21160 | 13.19813 | 1395 ft | 152 kts | 247° |
| 2026-05-07 16:52 | 38.20761 | 13.18606 | 1183 ft | 145 kts | 248° |
| 2026-05-07 16:52 | 38.20378 | 13.17448 | 1020 ft | 140 kts | 247° |
| 2026-05-07 16:52 | 38.19996 | 13.16321 | 924 ft | 138 kts | 247° |
| 2026-05-07 16:53 | 38.19617 | 13.15197 | 756 ft | 138 kts | 248° |
| 2026-05-07 16:53 | 38.19243 | 13.14083 | 601 ft | 137 kts | 249° |
| 2026-05-07 16:53 | 38.18877 | 13.12978 | 371 ft | 136 kts | 248° |
| 2026-05-07 16:53 | 38.18521 | 13.11896 | 121 ft | 133 kts | 244° |
| 2026-05-07 16:54 | 38.18179 | 13.10866 | 73 ft | 117 kts | 244° |
| 2026-05-07 16:54 | 38.17898 | 13.10045 | 62 ft | 79 kts | 247° |
| 2026-05-07 16:54 | 38.17734 | 13.09547 | 68 ft | 47 kts | 246° |
| 2026-05-07 16:54 | 38.17625 | 13.09227 | 65 ft | 18 kts | 246° |
| 2026-05-07 16:55 | 38.17670 | 13.09156 | 70 ft | 12 kts | 14° |
| 2026-05-07 16:55 | 38.17768 | 13.09209 | 69 ft | 16 kts | 23° |
| 2026-05-07 16:55 | 38.17858 | 13.09310 | 70 ft | 23 kts | 65° |
| 2026-05-07 16:55 | 38.17929 | 13.09522 | 66 ft | 27 kts | 67° |
| 2026-05-07 16:56 | 38.18005 | 13.09751 | 61 ft | 30 kts | 67° |
| 2026-05-07 16:56 | 38.18090 | 13.09998 | 62 ft | 31 kts | 65° |
| 2026-05-07 16:56 | 38.18220 | 13.10167 | 56 ft | 15 kts | 40° |
| 2026-05-07 16:57 | 38.18268 | 13.10290 | 58 ft | 14 kts | 67° |
| 2026-05-07 16:57 | 38.18328 | 13.10319 | 58 ft | 10 kts | 336° |
| 2026-05-07 16:57 | 38.18374 | 13.10315 | 63 ft | 6 kts | 80° |
| 2026-05-07 16:57 | 38.18419 | 13.10478 | 65 ft | 32 kts | 73° |
| 2026-05-07 16:58 | 38.18464 | 13.10603 | 60 ft | 12 kts | 63° |
| 2026-05-07 16:58 | 38.18496 | 13.10638 | 65 ft | 6 kts | 359° |
| 2026-05-07 16:58 | 38.18539 | 13.10615 | 59 ft | 7 kts | 336° |
| 2026-05-07 16:58 | 38.18547 | 13.10610 | 62 ft | 2 kts | 336° |
| 2026-05-07 16:59 | 38.18556 | 13.10605 | 59 ft | 0 kts | 336° |